createdAt,value
2019-06-25T00:01:57.155Z,7.67
2019-06-25T00:04:26.635Z,9.67
2019-06-25T00:06:56.211Z,7.20
2019-06-25T00:09:25.908Z,6.87
2019-06-25T00:11:55.515Z,7.47
2019-06-25T00:14:25.342Z,7.83
2019-06-25T00:16:54.806Z,9.20
2019-06-25T00:19:24.279Z,7.70
2019-06-25T00:21:53.737Z,8.20
2019-06-25T00:24:23.458Z,8.43
2019-06-25T00:26:52.944Z,8.07
2019-06-25T00:29:22.390Z,7.80
2019-06-25T00:31:51.878Z,8.23
2019-06-25T00:34:21.388Z,10.17
2019-06-25T00:36:50.853Z,8.63
2019-06-25T00:39:20.289Z,9.07
2019-06-25T00:41:49.761Z,8.17
2019-06-25T00:44:19.755Z,8.33
2019-06-25T00:46:49.530Z,9.13
2019-06-25T00:49:18.942Z,7.77
2019-06-25T00:51:48.640Z,10.37
2019-06-25T00:54:18.138Z,8.40
2019-06-25T00:56:47.604Z,8.67
2019-06-25T00:59:17.093Z,9.60
2019-06-25T01:01:48.170Z,8.90
2019-06-25T01:04:18.299Z,8.97
2019-06-25T01:06:47.848Z,11.83
2019-06-25T01:09:17.569Z,9.07
2019-06-25T01:11:47.385Z,9.23
2019-06-25T01:14:16.919Z,9.13
2019-06-25T01:16:46.561Z,10.03
2019-06-25T01:19:16.288Z,9.23
2019-06-25T01:21:46.509Z,9.27
2019-06-25T01:24:16.060Z,8.77
2019-06-25T01:26:45.682Z,9.80
2019-06-25T01:29:15.535Z,10.17
2019-06-25T01:31:45.255Z,9.53
2019-06-25T01:34:14.830Z,12.00
2019-06-25T01:36:44.791Z,9.53
2019-06-25T01:39:14.315Z,10.37
2019-06-25T01:41:43.877Z,9.10
2019-06-25T01:44:13.417Z,10.43
2019-06-25T01:46:42.947Z,11.43
2019-06-25T01:49:12.967Z,10.00
2019-06-25T01:51:42.609Z,9.97
2019-06-25T01:54:12.242Z,9.60
2019-06-25T01:56:41.955Z,9.93
2019-06-25T01:59:11.421Z,9.93
2019-06-25T02:01:40.865Z,10.40
2019-06-25T02:04:13.357Z,10.40
2019-06-25T02:06:42.830Z,10.30
2019-06-25T02:09:12.326Z,9.53
2019-06-25T02:11:41.892Z,10.70
2019-06-25T02:14:11.336Z,9.90
2019-06-25T02:16:40.860Z,10.50
2019-06-25T02:19:10.295Z,10.50
2019-06-25T02:21:39.780Z,10.20
2019-06-25T02:24:12.284Z,12.60
2019-06-25T02:26:40.389Z,10.93
2019-06-25T02:29:10.148Z,10.33
2019-06-25T02:31:39.659Z,10.40
2019-06-25T02:34:09.150Z,10.93
2019-06-25T02:36:38.934Z,11.40
2019-06-25T02:39:08.474Z,11.67
2019-06-25T02:41:37.920Z,10.43
2019-06-25T02:44:07.438Z,11.77
2019-06-25T02:46:37.034Z,12.30
2019-06-25T02:49:06.527Z,11.87
2019-06-25T02:51:35.981Z,11.37
2019-06-25T02:54:05.513Z,10.70
2019-06-25T02:56:35.037Z,10.90
2019-06-25T02:59:04.473Z,11.30
2019-06-25T03:01:33.991Z,11.07
2019-06-25T03:04:03.649Z,12.50
2019-06-25T03:06:33.257Z,12.43
2019-06-25T03:09:02.748Z,12.00
2019-06-25T03:11:32.235Z,12.23
2019-06-25T03:14:01.935Z,10.90
2019-06-25T03:16:31.421Z,11.73
2019-06-25T03:19:01.035Z,11.43
2019-06-25T03:21:30.486Z,12.93
2019-06-25T03:23:59.969Z,12.17
2019-06-25T03:26:29.510Z,11.73
2019-06-25T03:28:58.988Z,14.13
2019-06-25T03:32:00.238Z,11.77
2019-06-25T03:33:59.729Z,12.40
2019-06-25T03:36:29.215Z,13.53
2019-06-25T03:38:58.892Z,12.30
2019-06-25T03:41:28.397Z,13.17
2019-06-25T03:43:57.800Z,11.60
2019-06-25T03:46:27.302Z,11.73
2019-06-25T03:48:56.785Z,11.83
2019-06-25T03:51:26.252Z,12.17
2019-06-25T03:53:55.811Z,11.80
2019-06-25T03:56:25.299Z,12.33
2019-06-25T03:58:54.746Z,13.30
2019-06-25T04:01:24.219Z,12.03
2019-06-25T04:03:53.696Z,13.77
2019-06-25T04:06:23.146Z,13.57
2019-06-25T04:08:52.943Z,13.47
2019-06-25T04:11:22.396Z,14.83
2019-06-25T04:13:52.187Z,13.60
2019-06-25T04:16:21.899Z,17.60
2019-06-25T04:18:51.368Z,18.50
2019-06-25T04:21:20.888Z,13.97
2019-06-25T04:23:50.350Z,13.73
2019-06-25T04:26:19.846Z,15.20
2019-06-25T04:28:49.263Z,14.47
2019-06-25T04:31:18.784Z,13.90
2019-06-25T04:33:48.333Z,14.93
2019-06-25T04:36:17.951Z,13.23
2019-06-25T04:38:47.475Z,14.17
2019-06-25T04:41:16.947Z,15.47
2019-06-25T04:43:46.407Z,14.33
2019-06-25T04:46:15.903Z,16.30
2019-06-25T04:48:45.500Z,13.13
2019-06-25T04:51:15.138Z,12.63
2019-06-25T04:53:44.978Z,12.33
2019-06-25T04:56:14.485Z,14.10
2019-06-25T04:58:43.937Z,11.57
2019-06-25T05:01:13.392Z,11.67
2019-06-25T05:03:43.152Z,10.83
2019-06-25T05:06:12.632Z,10.70
2019-06-25T05:08:42.101Z,12.50
2019-06-25T05:11:11.617Z,11.20
2019-06-25T05:13:41.073Z,11.00
2019-06-25T05:16:11.712Z,11.63
2019-06-25T05:18:41.247Z,15.18
2019-06-25T05:21:10.753Z,12.43
2019-06-25T05:23:40.249Z,10.23
2019-06-25T05:26:09.688Z,14.15
2019-06-25T05:28:39.439Z,11.10
2019-06-25T05:31:09.152Z,10.43
2019-06-25T05:33:38.655Z,10.75
2019-06-25T05:36:25.723Z,12.65
2019-06-25T05:38:55.204Z,10.35
2019-06-25T05:41:24.699Z,8.93
2019-06-25T05:43:54.177Z,9.00
2019-06-25T05:46:23.627Z,11.63
2019-06-25T05:48:53.158Z,13.30
2019-06-25T05:51:22.601Z,10.65
2019-06-25T05:53:52.048Z,8.38
2019-06-25T05:56:21.566Z,7.15
2019-06-25T05:58:51.037Z,10.23
2019-06-25T06:01:20.466Z,8.63
2019-06-25T06:03:50.060Z,7.30
2019-06-25T06:06:19.505Z,7.17
2019-06-25T06:08:48.980Z,6.47
2019-06-25T06:11:18.462Z,8.25
2019-06-25T06:13:48.003Z,8.00
2019-06-25T06:16:17.523Z,6.37
2019-06-25T06:18:46.993Z,7.03
2019-06-25T06:21:16.457Z,8.83
2019-06-25T06:23:46.242Z,7.17
2019-06-25T06:26:18.370Z,7.97
2019-06-25T06:28:46.839Z,7.05
2019-06-25T06:31:18.232Z,7.35
2019-06-25T06:33:50.269Z,6.55
2019-06-25T06:36:19.659Z,5.85
2019-06-25T06:38:49.111Z,7.92
2019-06-25T06:41:18.667Z,7.28
2019-06-25T06:43:48.317Z,10.32
2019-06-25T06:46:17.938Z,10.28
2019-06-25T06:48:47.467Z,8.58
2019-06-25T06:51:17.046Z,7.28
2019-06-25T06:53:46.582Z,8.33
2019-06-25T06:56:16.115Z,8.25
2019-06-25T06:58:45.588Z,9.33
2019-06-25T07:01:15.203Z,7.00
2019-06-25T07:03:52.940Z,5.95
2019-06-25T07:06:15.865Z,7.20
2019-06-25T07:08:45.587Z,10.50
2019-06-25T07:11:15.482Z,9.93
2019-06-25T07:13:45.372Z,8.05
2019-06-25T07:16:14.932Z,9.80
2019-06-25T07:18:44.416Z,7.53
2019-06-25T07:21:13.879Z,5.58
2019-06-25T07:23:43.356Z,8.80
2019-06-25T07:26:12.890Z,6.45
2019-06-25T07:28:42.601Z,5.55
2019-06-25T07:31:12.422Z,9.33
2019-06-25T07:33:43.301Z,10.65
2019-06-25T07:36:12.993Z,4.85
2019-06-25T07:38:42.441Z,8.18
2019-06-25T07:41:11.904Z,9.83
2019-06-25T07:43:41.690Z,8.03
2019-06-25T07:46:11.380Z,7.78
2019-06-25T07:48:40.901Z,6.25
2019-06-25T07:51:10.500Z,6.65
2019-06-25T07:53:40.027Z,11.50
2019-06-25T07:56:09.570Z,7.05
2019-06-25T07:58:39.121Z,8.18
2019-06-25T08:01:08.653Z,9.38
2019-06-25T08:03:38.523Z,6.30
2019-06-25T08:06:07.964Z,7.05
2019-06-25T08:08:37.489Z,5.65
2019-06-25T08:11:06.943Z,7.05
2019-06-25T08:13:36.442Z,7.60
2019-06-25T08:16:06.473Z,6.00
2019-06-25T08:18:36.083Z,4.90
2019-06-25T08:21:05.893Z,13.28
2019-06-25T08:23:35.288Z,5.90
2019-06-25T08:26:05.122Z,5.92
2019-06-25T08:28:34.580Z,4.90
2019-06-25T08:31:04.077Z,5.55
2019-06-25T08:33:33.526Z,8.53
2019-06-25T08:36:02.975Z,5.28
2019-06-25T08:38:32.521Z,4.08
2019-06-25T08:41:02.233Z,5.10
2019-06-25T08:43:31.692Z,5.20
2019-06-25T08:46:01.587Z,5.80
2019-06-25T08:48:31.054Z,4.58
2019-06-25T08:51:00.541Z,7.40
2019-06-25T08:53:30.458Z,5.55
2019-06-25T08:56:00.490Z,7.33
2019-06-25T08:58:30.048Z,5.35
2019-06-25T09:00:59.605Z,7.22
2019-06-25T09:03:29.045Z,6.70
2019-06-25T09:05:58.558Z,4.37
2019-06-25T09:08:28.064Z,6.37
2019-06-25T09:10:57.526Z,6.22
2019-06-25T09:13:26.985Z,4.60
2019-06-25T09:15:56.465Z,5.87
2019-06-25T09:18:25.938Z,4.28
2019-06-25T09:20:55.434Z,4.03
2019-06-25T09:23:24.893Z,4.78
2019-06-25T09:25:54.451Z,3.87
2019-06-25T09:28:24.313Z,5.15
2019-06-25T09:30:53.921Z,6.12
2019-06-25T09:33:23.771Z,5.12
2019-06-25T09:35:53.236Z,14.15
2019-06-25T09:38:22.691Z,8.05
2019-06-25T09:40:51.302Z,5.45
2019-06-25T09:43:19.711Z,4.10
2019-06-25T09:45:49.434Z,9.23
2019-06-25T09:48:18.959Z,3.85
2019-06-25T09:50:48.971Z,4.15
2019-06-25T09:53:21.835Z,4.17
2019-06-25T09:55:49.569Z,10.25
2019-06-25T09:58:19.081Z,3.75
2019-06-25T10:00:59.347Z,6.67
2019-06-25T10:03:29.081Z,16.75
2019-06-25T10:05:58.893Z,6.33
2019-06-25T10:08:28.276Z,10.55
2019-06-25T10:10:57.786Z,17.70
2019-06-25T10:13:27.245Z,29.72
2019-06-25T10:15:57.122Z,4.62
2019-06-25T10:18:43.038Z,4.45
2019-06-25T10:20:57.755Z,3.67
2019-06-25T10:23:27.501Z,6.10
2019-06-25T10:25:56.982Z,6.47
2019-06-25T10:28:33.001Z,6.20
2019-06-25T10:30:58.157Z,4.45
2019-06-25T10:33:27.672Z,5.12
2019-06-25T10:35:57.135Z,6.83
2019-06-25T10:38:26.877Z,4.92
2019-06-25T10:40:56.892Z,5.80
2019-06-25T10:43:26.422Z,5.35
2019-06-25T10:45:56.149Z,5.00
2019-06-25T10:48:26.916Z,4.67
2019-06-25T10:50:56.511Z,9.20
2019-06-25T10:53:26.089Z,26.97
2019-06-25T10:55:55.869Z,7.08
2019-06-25T10:58:25.365Z,6.08
2019-06-25T11:00:55.898Z,5.92
2019-06-25T11:03:25.769Z,9.23
2019-06-25T11:06:05.083Z,3.60
2019-06-25T11:08:26.850Z,6.70
2019-06-25T11:10:56.277Z,11.88
2019-06-25T11:13:25.792Z,3.55
2019-06-25T11:15:55.417Z,3.62
2019-06-25T11:18:25.000Z,8.85
2019-06-25T11:20:54.447Z,8.88
2019-06-25T11:23:23.921Z,7.45
2019-06-25T11:26:16.601Z,3.22
2019-06-25T11:28:25.571Z,4.78
2019-06-25T11:30:55.049Z,3.30
2019-06-25T11:33:24.545Z,5.17
2019-06-25T11:35:54.008Z,4.15
2019-06-25T11:38:23.681Z,5.00
2019-06-25T11:40:53.120Z,4.72
2019-06-25T11:43:24.524Z,3.77
2019-06-25T11:45:53.972Z,3.67
2019-06-25T11:48:23.508Z,4.42
2019-06-25T11:50:53.078Z,5.50
2019-06-25T11:53:22.796Z,4.15
2019-06-25T11:55:52.290Z,4.00
2019-06-25T11:58:21.744Z,4.78
2019-06-25T12:00:51.214Z,3.65
2019-06-25T12:03:21.075Z,3.10
2019-06-25T12:05:50.514Z,5.25
2019-06-25T12:08:19.987Z,2.58
2019-06-25T12:10:49.591Z,3.95
2019-06-25T12:13:19.139Z,3.27
2019-06-25T12:15:48.926Z,3.37
2019-06-25T12:18:18.416Z,3.35
2019-06-25T12:20:47.865Z,3.62
2019-06-25T12:23:17.494Z,3.15
2019-06-25T12:25:46.959Z,3.25
2019-06-25T12:28:16.438Z,4.37
2019-06-25T12:30:46.140Z,3.25
2019-06-25T12:33:15.594Z,4.05
2019-06-25T12:35:45.091Z,5.45
2019-06-25T12:38:14.553Z,2.80
2019-06-25T12:40:44.033Z,5.30
2019-06-25T12:43:13.619Z,3.60
2019-06-25T12:45:43.077Z,4.35
2019-06-25T12:48:13.321Z,4.40
2019-06-25T12:50:42.796Z,4.35
2019-06-25T12:53:12.302Z,3.90
2019-06-25T12:55:41.820Z,3.55
2019-06-25T12:58:11.268Z,3.45
2019-06-25T13:00:40.775Z,2.87
2019-06-25T13:03:10.272Z,4.35
2019-06-25T13:05:39.966Z,3.80
2019-06-25T13:08:09.560Z,4.00
2019-06-25T13:10:44.144Z,5.03
2019-06-25T13:13:10.506Z,8.35
2019-06-25T13:15:39.985Z,4.28
2019-06-25T13:18:10.251Z,6.00
2019-06-25T13:20:39.712Z,3.67
2019-06-25T13:23:09.314Z,5.95
2019-06-25T13:25:38.815Z,3.20
2019-06-25T13:28:08.292Z,6.12
2019-06-25T13:30:37.866Z,4.53
2019-06-25T13:33:07.407Z,4.35
2019-06-25T13:35:37.089Z,5.10
2019-06-25T13:38:06.546Z,3.25
2019-06-25T13:40:36.092Z,5.28
2019-06-25T13:43:05.586Z,4.85
2019-06-25T13:45:35.122Z,4.10
2019-06-25T13:48:11.574Z,3.62
2019-06-25T13:50:35.855Z,3.50
2019-06-25T13:53:05.326Z,3.10
2019-06-25T13:55:34.797Z,3.80
2019-06-25T13:58:04.558Z,6.00
2019-06-25T14:00:34.284Z,3.80
2019-06-25T14:03:04.231Z,6.65
2019-06-25T14:05:33.702Z,5.15
2019-06-25T14:08:04.469Z,7.97
2019-06-25T14:10:34.292Z,4.50
2019-06-25T14:13:03.839Z,5.47
2019-06-25T14:15:33.389Z,6.65
2019-06-25T14:18:02.845Z,5.85
2019-06-25T14:20:32.290Z,4.00
2019-06-25T14:23:01.921Z,4.87
2019-06-25T14:25:31.389Z,4.22
2019-06-25T14:28:00.866Z,6.75
2019-06-25T14:30:32.646Z,3.60
2019-06-25T14:33:01.517Z,3.77
2019-06-25T14:35:31.038Z,5.33
2019-06-25T14:38:15.013Z,5.70
2019-06-25T14:40:33.517Z,5.85
2019-06-25T14:43:03.495Z,4.33
2019-06-25T14:45:33.488Z,10.03
2019-06-25T14:48:03.191Z,7.37
2019-06-25T14:50:32.727Z,6.53
2019-06-25T14:53:02.285Z,8.13
2019-06-25T14:55:31.782Z,8.33
2019-06-25T14:58:01.299Z,5.67
2019-06-25T15:00:30.863Z,5.08
2019-06-25T15:03:00.362Z,7.03
2019-06-25T15:05:30.548Z,11.03
2019-06-25T15:08:00.524Z,5.10
2019-06-25T15:10:30.535Z,10.30
2019-06-25T15:13:00.167Z,5.92
2019-06-25T15:15:33.193Z,6.97
2019-06-25T15:18:01.107Z,5.22
2019-06-25T15:20:30.618Z,4.70
2019-06-25T15:23:00.081Z,7.00
2019-06-25T15:25:29.568Z,6.83
2019-06-25T15:27:59.033Z,6.80
2019-06-25T15:30:34.379Z,8.05
2019-06-25T15:33:03.846Z,4.70
2019-06-25T15:35:33.336Z,6.97
2019-06-25T15:38:02.818Z,5.85
2019-06-25T15:40:32.269Z,6.62
2019-06-25T15:43:01.750Z,7.40
2019-06-25T15:45:31.314Z,6.12
2019-06-25T15:48:00.771Z,10.75
2019-06-25T15:50:30.358Z,6.53
2019-06-25T15:52:59.827Z,8.00
2019-06-25T15:55:29.323Z,6.80
2019-06-25T15:57:59.013Z,6.05
2019-06-25T16:00:28.461Z,11.10
2019-06-25T16:02:58.082Z,7.00
2019-06-25T16:05:27.584Z,6.33
2019-06-25T16:07:57.634Z,7.33
2019-06-25T16:10:27.101Z,6.62
2019-06-25T16:12:56.571Z,6.25
2019-06-25T16:15:40.649Z,6.37
2019-06-25T16:17:57.228Z,7.85
2019-06-25T16:20:26.707Z,6.58
2019-06-25T16:22:56.196Z,7.67
2019-06-25T16:25:25.647Z,9.68
2019-06-25T16:27:55.108Z,9.88
2019-06-25T16:30:24.663Z,7.00
2019-06-25T16:32:55.765Z,9.60
2019-06-25T16:35:25.246Z,9.58
2019-06-25T16:37:54.961Z,6.87
2019-06-25T16:40:25.421Z,7.78
2019-06-25T16:42:54.891Z,9.73
2019-06-25T16:45:24.377Z,9.85
2019-06-25T16:47:54.778Z,7.00
2019-06-25T16:50:24.292Z,6.97
2019-06-25T16:52:53.784Z,7.15
2019-06-25T16:55:23.340Z,8.28
2019-06-25T16:57:52.818Z,10.05
2019-06-25T17:00:22.348Z,8.48
2019-06-25T17:02:54.765Z,10.60
2019-06-25T17:05:31.712Z,7.55
2019-06-25T17:07:54.398Z,9.25
2019-06-25T17:10:23.935Z,11.40
2019-06-25T17:12:53.367Z,9.20
2019-06-25T17:15:22.835Z,9.75
2019-06-25T17:17:52.305Z,14.40
2019-06-25T17:20:22.563Z,7.75
2019-06-25T17:23:07.191Z,9.38
2019-06-25T17:25:27.763Z,8.50
2019-06-25T17:27:55.510Z,9.15
2019-06-25T17:30:25.003Z,9.15
2019-06-25T17:32:54.478Z,9.80
2019-06-25T17:35:23.923Z,8.23
2019-06-25T17:37:53.514Z,10.35
2019-06-25T17:40:23.956Z,8.68
2019-06-25T17:42:53.389Z,9.85
2019-06-25T17:45:22.865Z,9.18
2019-06-25T17:47:52.505Z,10.18
2019-06-25T17:50:22.604Z,10.45
2019-06-25T17:52:54.238Z,11.50
2019-06-25T17:55:23.293Z,10.93
2019-06-25T17:57:53.165Z,12.25
2019-06-25T18:00:22.753Z,8.85
2019-06-25T18:02:52.221Z,10.25
2019-06-25T18:05:22.986Z,8.40
2019-06-25T18:07:52.626Z,8.58
2019-06-25T18:10:22.106Z,9.03
2019-06-25T18:12:53.961Z,9.98
2019-06-25T18:15:22.749Z,9.33
2019-06-25T18:17:52.281Z,10.35
2019-06-25T18:20:21.809Z,9.65
2019-06-25T18:22:51.273Z,11.65
2019-06-25T18:25:20.736Z,11.38
2019-06-25T18:27:50.550Z,9.15
2019-06-25T18:30:20.479Z,9.53
2019-06-25T18:32:49.989Z,9.90
2019-06-25T18:35:19.677Z,10.63
2019-06-25T18:37:49.183Z,10.00
2019-06-25T18:40:23.655Z,13.68
2019-06-25T18:42:50.002Z,12.75
2019-06-25T18:45:19.532Z,9.63
2019-06-25T18:47:49.073Z,10.82
2019-06-25T18:50:18.823Z,10.03
2019-06-25T18:52:48.296Z,9.33
2019-06-25T18:55:17.787Z,10.80
2019-06-25T18:57:47.267Z,10.30
2019-06-25T19:00:17.596Z,12.73
2019-06-25T19:02:47.079Z,12.37
2019-06-25T19:05:16.598Z,15.18
2019-06-25T19:07:46.355Z,11.08
2019-06-25T19:10:17.391Z,11.05
2019-06-25T19:12:47.063Z,10.50
2019-06-25T19:15:16.615Z,10.72
2019-06-25T19:17:46.121Z,11.35
2019-06-25T19:20:15.724Z,12.50
2019-06-25T19:22:45.499Z,10.80
2019-06-25T19:25:15.025Z,11.48
2019-06-25T19:27:44.496Z,10.63
2019-06-25T19:30:14.348Z,15.40
2019-06-25T19:32:43.956Z,10.63
2019-06-25T19:35:13.447Z,11.38
2019-06-25T19:37:45.101Z,11.97
2019-06-25T19:40:14.349Z,10.95
2019-06-25T19:42:43.984Z,11.73
2019-06-25T19:45:13.966Z,11.18
2019-06-25T19:47:50.311Z,11.20
2019-06-25T19:50:17.488Z,10.20
2019-06-25T19:52:45.998Z,11.60
2019-06-25T19:55:15.510Z,12.82
2019-06-25T19:57:45.286Z,10.78
2019-06-25T20:00:15.209Z,12.45
2019-06-25T20:02:44.673Z,10.93
2019-06-25T20:05:14.308Z,12.70
2019-06-25T20:07:43.795Z,11.03
2019-06-25T20:10:13.451Z,10.82
2019-06-25T20:12:42.968Z,28.27
2019-06-25T20:15:12.707Z,14.10
2019-06-25T20:17:42.201Z,15.30
2019-06-25T20:20:11.722Z,12.00
2019-06-25T20:22:41.226Z,12.68
2019-06-25T20:25:10.771Z,12.20
2019-06-25T20:27:40.247Z,11.50
2019-06-25T20:30:09.932Z,12.82
2019-06-25T20:32:39.624Z,12.37
2019-06-25T20:35:09.238Z,13.62
2019-06-25T20:37:38.745Z,12.37
2019-06-25T20:40:09.476Z,12.33
2019-06-25T20:42:39.041Z,12.78
2019-06-25T20:45:11.694Z,11.83
2019-06-25T20:47:39.981Z,12.45
2019-06-25T20:50:09.693Z,12.63
2019-06-25T20:52:39.179Z,17.30
2019-06-25T20:55:08.714Z,12.10
2019-06-25T20:57:38.462Z,13.85
2019-06-25T21:00:08.645Z,12.80
2019-06-25T21:02:38.226Z,12.00
2019-06-25T21:05:08.072Z,17.07
2019-06-25T21:07:37.543Z,12.55
2019-06-25T21:10:07.171Z,12.30
2019-06-25T21:12:36.593Z,12.73
2019-06-25T21:15:07.658Z,12.90
2019-06-25T21:17:37.153Z,11.88
2019-06-25T21:20:08.228Z,13.15
2019-06-25T21:22:37.743Z,13.55
2019-06-25T21:25:12.985Z,13.53
2019-06-25T21:27:42.435Z,11.97
2019-06-25T21:30:12.551Z,13.05
2019-06-25T21:32:42.019Z,13.15
2019-06-25T21:35:11.530Z,13.03
2019-06-25T21:37:41.291Z,13.55
2019-06-25T21:40:12.564Z,14.00
2019-06-25T21:42:42.074Z,16.65
2019-06-25T21:45:12.429Z,12.70
2019-06-25T21:47:41.898Z,13.68
2019-06-25T21:50:12.175Z,13.03
2019-06-25T21:52:41.648Z,13.20
2019-06-25T21:55:11.524Z,12.93
2019-06-25T21:57:41.034Z,12.30
2019-06-25T22:00:15.565Z,13.78
2019-06-25T22:02:55.385Z,13.68
2019-06-25T22:05:25.097Z,14.00
2019-06-25T22:07:54.577Z,13.38
2019-06-25T22:10:24.259Z,12.75
2019-06-25T22:12:53.713Z,15.98
2019-06-25T22:15:23.251Z,13.55
2019-06-25T22:17:52.742Z,13.35
2019-06-25T22:20:22.770Z,12.60
2019-06-25T22:22:52.261Z,13.35
2019-06-25T22:25:21.791Z,13.55
2019-06-25T22:27:51.502Z,14.75
2019-06-25T22:30:22.489Z,13.15
2019-06-25T22:32:51.948Z,14.47
2019-06-25T22:35:21.517Z,13.55
2019-06-25T22:37:50.981Z,14.63
2019-06-25T22:40:20.528Z,16.07
2019-06-25T22:42:50.021Z,13.58
2019-06-25T22:45:20.278Z,14.20
2019-06-25T22:47:49.798Z,13.88
2019-06-25T22:50:19.301Z,13.75
2019-06-25T22:52:48.756Z,14.35
2019-06-25T22:55:18.254Z,15.63
2019-06-25T22:57:47.800Z,14.18
2019-06-25T23:00:17.421Z,14.40
2019-06-25T23:02:46.905Z,13.88
2019-06-25T23:05:16.619Z,13.95
2019-06-25T23:07:46.152Z,14.43
2019-06-25T23:10:15.627Z,15.68
2019-06-25T23:12:54.076Z,14.07
2019-06-25T23:15:17.284Z,14.07
2019-06-25T23:17:46.817Z,15.35
2019-06-25T23:20:18.173Z,16.87
2019-06-25T23:22:48.084Z,15.55
2019-06-25T23:25:17.578Z,14.63
2019-06-25T23:27:47.047Z,14.80
2019-06-25T23:30:16.522Z,14.87
2019-06-25T23:32:45.994Z,14.98
2019-06-25T23:35:15.504Z,13.98
2019-06-25T23:37:44.967Z,17.37
2019-06-25T23:40:15.376Z,15.58
2019-06-25T23:42:44.878Z,14.83
2019-06-25T23:45:14.441Z,16.40
2019-06-25T23:47:43.952Z,15.32
2019-06-25T23:50:13.680Z,14.60
2019-06-25T23:52:43.162Z,15.38
2019-06-25T23:55:13.038Z,14.73
2019-06-25T23:57:42.503Z,15.43
